Time;durP1;ratioP1;P1;durP2;ratioP2;P2;SDS_P1;SDS_P2;PMS_P1;PMS_P2;Temp;Humidity;BMP_temperature;BMP_pressure;BME280_temperature;BME280_humidity;BME280_pressure;Samples;Min_cycle;Max_cycle;Signal;HPM_P1;HPM_P2
2024/04/16 00:00:38;;;;;;;2.17;1.67;;;;;;;6.46;71.65;99670.16;2700206;26;20341;-78
2024/04/16 00:01:51;;;;;;;3.25;1.17;;;;;;;6.49;72.25;99669.25;2705066;26;20485;-78
2024/04/16 00:03:05;;;;;;;6.85;2.15;;;;;;;6.51;71.72;99662.34;2724054;26;20003;-77
2024/04/16 00:04:18;;;;;;;3.83;1.30;;;;;;;6.49;71.63;99659.75;2710307;26;20533;-78
2024/04/16 00:05:32;;;;;;;11.63;3.75;;;;;;;6.52;71.64;99662.31;2707824;26;20011;-77
2024/04/16 00:06:45;;;;;;;5.53;1.67;;;;;;;6.54;71.32;99649.34;2716348;26;20036;-79
2024/04/16 00:07:59;;;;;;;1.98;0.90;;;;;;;6.56;71.46;99652.81;2728703;26;20007;-77
2024/04/16 00:09:12;;;;;;;4.75;1.52;;;;;;;6.58;71.81;99660.53;2736647;26;20052;-78
2024/04/16 00:10:25;;;;;;;4.90;2.88;;;;;;;6.57;71.40;99640.69;2733433;26;20007;-78
2024/04/16 00:11:39;;;;;;;10.80;1.77;;;;;;;6.59;71.19;99646.72;2715155;26;20070;-78
2024/04/16 00:12:52;;;;;;;7.80;1.60;;;;;;;6.58;71.00;99637.22;2701278;26;20408;-78
2024/04/16 00:14:05;;;;;;;2.33;1.75;;;;;;;6.59;70.93;99624.25;2717907;26;20410;-79
2024/04/16 00:15:18;;;;;;;5.75;1.58;;;;;;;6.60;70.80;99619.91;2712828;26;20519;-78
2024/04/16 00:16:32;;;;;;;4.25;1.48;;;;;;;6.58;71.43;99632.03;2721241;26;20102;-79
2024/04/16 00:17:46;;;;;;;4.50;1.70;;;;;;;6.58;71.16;99626.84;2693901;26;20100;-78
2024/04/16 00:18:59;;;;;;;6.03;1.33;;;;;;;6.58;71.74;99632.03;2690546;26;20061;-78
2024/04/16 00:20:13;;;;;;;5.50;2.47;;;;;;;6.57;71.28;99632.91;2702674;26;20019;-78
2024/04/16 00:21:26;;;;;;;3.22;1.35;;;;;;;6.54;71.27;99624.28;2701014;26;20360;-79
2024/04/16 00:22:39;;;;;;;5.85;2.25;;;;;;;6.55;71.04;99632.91;2721821;26;20031;-79
2024/04/16 00:23:52;;;;;;;3.85;2.03;;;;;;;6.54;71.16;99631.22;2714364;26;20022;-79
2024/04/16 00:25:08;;;;;;;6.47;2.00;;;;;;;6.52;71.28;99620.84;2722941;26;20026;-79
2024/04/16 00:26:21;;;;;;;5.20;2.28;;;;;;;6.53;70.76;99609.63;2733613;26;20010;-80
2024/04/16 00:27:34;;;;;;;4.43;1.65;;;;;;;6.52;71.09;99618.25;2721861;26;20609;-80
2024/04/16 00:28:48;;;;;;;5.38;1.70;;;;;;;6.52;71.57;99627.75;2706768;26;20015;-81
2024/04/16 00:30:01;;;;;;;7.40;4.30;;;;;;;6.53;71.08;99626.88;2700904;26;20003;-81
2024/04/16 00:31:14;;;;;;;5.35;2.90;;;;;;;6.54;71.11;99620.84;2708574;26;20007;-79
2024/04/16 00:32:28;;;;;;;2.47;1.17;;;;;;;6.54;71.17;99616.50;2708746;26;20011;-77
2024/04/16 00:33:41;;;;;;;7.78;2.53;;;;;;;6.53;70.88;99620.00;2720989;26;20018;-79
2024/04/16 00:34:54;;;;;;;6.45;2.05;;;;;;;6.55;71.18;99619.94;2733160;26;20439;-78
2024/04/16 00:36:07;;;;;;;5.38;1.73;;;;;;;6.55;71.15;99627.72;2733923;26;20053;-79
2024/04/16 00:37:21;;;;;;;9.20;1.90;;;;;;;6.54;70.38;99613.91;2734372;26;20003;-78
2024/04/16 00:38:34;;;;;;;5.10;1.92;;;;;;;6.58;70.43;99611.28;2715046;26;19999;-78
2024/04/16 00:39:47;;;;;;;9.52;2.47;;;;;;;6.58;71.05;99601.78;2690509;26;20004;-79
2024/04/16 00:41:00;;;;;;;5.03;2.53;;;;;;;6.59;70.34;99608.69;2694490;26;20019;-78
2024/04/16 00:42:15;;;;;;;5.88;2.15;;;;;;;6.60;70.50;99612.16;2704308;26;20014;-78
2024/04/16 00:43:28;;;;;;;3.25;1.20;;;;;;;6.59;69.46;99611.28;2708881;26;20015;-78
2024/04/16 00:44:41;;;;;;;3.53;1.90;;;;;;;6.61;68.96;99611.25;2724008;26;20018;-77
2024/04/16 00:45:56;;;;;;;5.32;1.92;;;;;;;6.61;68.99;99606.06;2731755;26;20047;-77
2024/04/16 00:47:10;;;;;;;3.65;1.30;;;;;;;6.63;69.63;99599.16;2741815;26;19999;-79
2024/04/16 00:48:38;;;;;;;3.47;2.42;;;;;;;6.65;69.85;99600.00;2735548;26;20081;-78
2024/04/16 00:49:52;;;;;;;5.70;2.05;;;;;;;6.65;70.79;99607.78;2695163;26;20004;-73
2024/04/16 00:51:06;;;;;;;4.32;1.83;;;;;;;6.63;70.36;99605.19;2677950;26;20400;-73
2024/04/16 00:52:20;;;;;;;4.93;1.75;;;;;;;6.63;70.75;99596.56;2699273;26;20004;-74
2024/04/16 00:53:33;;;;;;;4.78;1.63;;;;;;;6.64;70.75;99600.88;2693535;26;20011;-73
2024/04/16 00:54:47;;;;;;;2.15;1.58;;;;;;;6.66;70.87;99600.00;2710832;26;20093;-73
2024/04/16 00:56:00;;;;;;;8.38;1.83;;;;;;;6.68;71.24;99599.97;2697891;26;19996;-74
2024/04/16 00:57:13;;;;;;;8.45;3.42;;;;;;;6.69;71.30;99605.16;2694434;26;20011;-73
2024/04/16 00:58:27;;;;;;;5.80;2.25;;;;;;;6.72;71.61;99605.13;2697632;26;20018;-74
2024/04/16 00:59:41;;;;;;;8.18;2.55;;;;;;;6.73;71.39;99596.44;2694813;26;20012;-73
2024/04/16 01:00:55;;;;;;;7.53;1.65;;;;;;;6.77;71.21;99599.88;2690657;26;20870;-73
2024/04/16 01:02:08;;;;;;;5.00;2.33;;;;;;;6.76;71.33;99591.25;2688432;26;20018;-73
2024/04/16 01:03:21;;;;;;;5.45;1.83;;;;;;;6.77;71.25;99594.69;2678843;26;20001;-74
2024/04/16 01:04:34;;;;;;;5.63;2.40;;;;;;;6.79;70.89;99595.56;2697466;26;20009;-73
2024/04/16 01:05:48;;;;;;;9.77;2.05;;;;;;;6.79;71.59;99600.75;2687867;26;20013;-74
2024/04/16 01:07:01;;;;;;;7.57;3.00;;;;;;;6.78;71.05;99599.00;2701529;26;20348;-73
2024/04/16 01:08:14;;;;;;;4.65;1.50;;;;;;;6.76;70.67;99599.03;2690805;26;20049;-74
2024/04/16 01:09:28;;;;;;;5.65;1.70;;;;;;;6.78;70.89;99614.56;2700523;26;20345;-74
2024/04/16 01:10:41;;;;;;;10.98;1.95;;;;;;;6.78;70.88;99607.63;2697191;26;20079;-74
2024/04/16 01:11:58;;;;;;;10.38;5.00;;;;;;;6.76;70.88;99586.06;2692404;26;20016;-74
2024/04/16 01:13:11;;;;;;;4.40;1.85;;;;;;;6.78;70.21;99593.81;2703119;26;20078;-73
2024/04/16 01:14:25;;;;;;;7.60;2.00;;;;;;;6.78;69.90;99591.22;2688804;26;20087;-73
2024/04/16 01:15:38;;;;;;;9.75;2.08;;;;;;;6.76;70.00;99580.00;2685977;26;20020;-74
2024/04/16 01:16:51;;;;;;;7.13;1.85;;;;;;;6.75;69.81;99586.06;2687257;26;20009;-74
2024/04/16 01:18:06;;;;;;;8.05;1.75;;;;;;;6.75;69.38;99584.31;2702188;26;20015;-73
2024/04/16 01:19:20;;;;;;;4.60;2.33;;;;;;;6.75;69.31;99583.47;2676520;26;20013;-73
2024/04/16 01:20:34;;;;;;;3.42;1.45;;;;;;;6.74;69.57;99581.78;2697886;26;20016;-73
2024/04/16 01:21:47;;;;;;;8.75;3.35;;;;;;;6.73;69.47;99574.84;2687767;26;20083;-73
2024/04/16 01:23:00;;;;;;;8.90;2.33;;;;;;;6.74;69.31;99580.03;2701492;26;20018;-73
2024/04/16 01:24:15;;;;;;;7.20;1.98;;;;;;;6.74;69.60;99574.84;2672110;26;20101;-74
2024/04/16 01:25:30;;;;;;;8.38;2.20;;;;;;;6.74;68.97;99566.22;2688900;26;20005;-73
2024/04/16 01:26:43;;;;;;;13.55;4.32;;;;;;;6.73;69.38;99569.66;2698472;26;20000;-74
2024/04/16 01:27:57;;;;;;;4.97;1.95;;;;;;;6.72;69.21;99579.19;2694169;26;20608;-73
2024/04/16 01:29:10;;;;;;;9.88;2.30;;;;;;;6.74;69.48;99579.19;2704456;26;20035;-73
2024/04/16 01:30:23;;;;;;;7.90;2.40;;;;;;;6.76;69.54;99578.28;2694214;26;20016;-74
2024/04/16 01:31:36;;;;;;;3.45;1.88;;;;;;;6.77;69.86;99574.81;2699142;26;20078;-74
2024/04/16 01:32:49;;;;;;;7.30;2.55;;;;;;;6.78;69.70;99578.25;2698898;26;20459;-74
2024/04/16 01:34:03;;;;;;;5.38;2.47;;;;;;;6.80;70.10;99570.47;2706953;26;20439;-74
2024/04/16 01:35:16;;;;;;;6.10;1.95;;;;;;;6.80;69.89;99560.09;2692778;26;20005;-74
2024/04/16 01:36:29;;;;;;;7.40;2.75;;;;;;;6.81;70.07;99552.28;2707104;26;20020;-73
2024/04/16 01:37:42;;;;;;;7.35;1.80;;;;;;;6.82;69.87;99559.19;2707549;26;20125;-74
2024/04/16 01:38:56;;;;;;;6.20;2.72;;;;;;;6.82;69.96;99563.53;2694495;26;20001;-73
2024/04/16 01:40:10;;;;;;;7.80;2.38;;;;;;;6.82;70.17;99568.72;2702703;26;20000;-73
2024/04/16 01:41:24;;;;;;;8.38;2.53;;;;;;;6.82;70.05;99568.72;2682130;26;20082;-74
2024/04/16 01:42:37;;;;;;;5.82;2.05;;;;;;;6.81;70.32;99559.22;2699784;26;20454;-74
2024/04/16 01:43:50;;;;;;;5.20;2.13;;;;;;;6.80;69.54;99560.94;2701563;26;20019;-74
2024/04/16 01:45:04;;;;;;;5.22;2.22;;;;;;;6.78;69.22;99552.31;2692392;26;20547;-73
2024/04/16 01:46:17;;;;;;;4.68;2.00;;;;;;;6.80;69.01;99560.94;2688906;26;20342;-74
2024/04/16 01:47:30;;;;;;;9.88;2.42;;;;;;;6.78;68.83;99552.31;2695356;26;20010;-74
2024/04/16 01:48:43;;;;;;;6.45;2.80;;;;;;;6.75;68.94;99553.22;2697481;26;20036;-74
2024/04/16 01:49:57;;;;;;;11.90;3.00;;;;;;;6.75;69.27;99552.34;2688742;26;20001;-73
2024/04/16 01:51:10;;;;;;;6.20;2.65;;;;;;;6.75;68.90;99550.63;2689297;26;20019;-74
2024/04/16 01:52:23;;;;;;;10.43;2.67;;;;;;;6.77;68.96;99556.66;2691681;26;20005;-74
2024/04/16 01:53:36;;;;;;;10.88;3.17;;;;;;;6.77;68.53;99556.66;2705914;26;20001;-74
2024/04/16 01:54:50;;;;;;;7.10;2.83;;;;;;;6.79;69.03;99559.25;2706880;26;20012;-74
2024/04/16 01:56:03;;;;;;;3.40;1.63;;;;;;;6.80;68.80;99558.34;2693509;26;20008;-74
2024/04/16 01:57:16;;;;;;;5.22;2.67;;;;;;;6.81;68.56;99554.88;2703710;26;20000;-74
2024/04/16 01:58:29;;;;;;;4.10;1.83;;;;;;;6.83;68.55;99553.13;2695051;26;20000;-74
2024/04/16 01:59:43;;;;;;;4.07;1.48;;;;;;;6.84;68.48;99560.06;2698998;26;20070;-74
2024/04/16 02:00:59;;;;;;;4.10;2.05;;;;;;;6.84;68.45;99554.88;2700926;26;20001;-74
2024/04/16 02:02:13;;;;;;;3.35;1.80;;;;;;;6.84;68.55;99557.47;2690923;26;20711;-74
2024/04/16 02:03:26;;;;;;;10.52;2.20;;;;;;;6.86;68.59;99560.88;2688772;26;20001;-74
2024/04/16 02:04:39;;;;;;;7.65;3.20;;;;;;;6.88;69.13;99563.47;2697645;26;20004;-74
2024/04/16 02:05:55;;;;;;;8.63;2.67;;;;;;;6.89;68.60;99568.66;2700847;26;20016;-74
2024/04/16 02:07:08;;;;;;;8.10;2.72;;;;;;;6.90;68.79;99559.13;2704091;26;20015;-74
2024/04/16 02:08:21;;;;;;;9.73;1.85;;;;;;;6.91;68.49;99556.50;2678104;26;20013;-74
2024/04/16 02:09:35;;;;;;;4.80;1.88;;;;;;;6.91;68.23;99553.03;2707213;26;20016;-74
2024/04/16 02:10:55;;;;;;;7.60;2.20;;;;;;;6.91;68.23;99563.41;2696554;26;20452;-74
2024/04/16 02:12:08;;;;;;;10.77;2.20;;;;;;;6.90;68.84;99564.31;2674326;26;20012;-73
2024/04/16 02:13:21;;;;;;;10.30;3.05;;;;;;;6.91;68.45;99550.44;2694346;26;20004;-73
2024/04/16 02:14:34;;;;;;;6.88;2.42;;;;;;;6.90;68.35;99561.72;2699995;26;20052;-74
2024/04/16 02:15:47;;;;;;;6.88;2.67;;;;;;;6.90;68.18;99561.72;2698402;26;19996;-73
2024/04/16 02:17:03;;;;;;;6.57;1.90;;;;;;;6.90;67.92;99561.72;2694173;26;20040;-74
2024/04/16 02:18:16;;;;;;;9.65;2.63;;;;;;;6.89;68.04;99553.09;2704347;26;19996;-73
2024/04/16 02:19:30;;;;;;;14.55;3.50;;;;;;;6.90;68.12;99561.72;2712538;26;20301;-74
2024/04/16 02:20:43;;;;;;;6.15;2.40;;;;;;;6.88;68.01;99553.94;2709719;26;20378;-74
2024/04/16 02:21:56;;;;;;;9.68;2.67;;;;;;;6.90;67.80;99557.38;2688588;26;20065;-74
2024/04/16 02:23:10;;;;;;;9.10;3.35;;;;;;;6.91;68.35;99555.63;2703397;26;20027;-74
2024/04/16 02:24:23;;;;;;;18.85;4.57;;;;;;;6.93;68.43;99559.09;2688055;26;20136;-74
2024/04/16 02:25:36;;;;;;;13.80;2.70;;;;;;;6.94;68.55;99559.06;2695486;26;19996;-74
2024/04/16 02:26:49;;;;;;;10.68;2.95;;;;;;;6.98;68.67;99550.38;2706140;26;20077;-74
2024/04/16 02:28:03;;;;;;;9.88;2.60;;;;;;;7.00;69.20;99558.16;2705132;26;20442;-74
2024/04/16 02:29:16;;;;;;;5.72;2.50;;;;;;;7.01;69.04;99556.41;2706204;26;20375;-73
2024/04/16 02:30:30;;;;;;;11.05;2.83;;;;;;;7.03;69.05;99559.84;2706130;26;20448;-74
2024/04/16 02:31:43;;;;;;;8.73;3.28;;;;;;;7.04;68.95;99566.72;2705215;26;20471;-74
2024/04/16 02:32:56;;;;;;;9.85;3.40;;;;;;;7.06;69.27;99563.25;2683051;26;20000;-74
2024/04/16 02:34:09;;;;;;;8.75;2.67;;;;;;;7.07;69.20;99567.53;2703089;26;20008;-74
2024/04/16 02:35:23;;;;;;;5.85;2.50;;;;;;;7.10;69.10;99569.25;2692802;26;20083;-74
2024/04/16 02:36:36;;;;;;;9.88;3.28;;;;;;;7.09;69.21;99560.63;2706172;26;20007;-74
2024/04/16 02:37:49;;;;;;;12.13;2.70;;;;;;;7.10;69.19;99564.06;2705778;26;20432;-74
2024/04/16 02:39:02;;;;;;;4.50;2.53;;;;;;;7.10;69.15;99574.44;2705809;26;20449;-73
2024/04/16 02:40:15;;;;;;;5.45;2.70;;;;;;;7.10;69.34;99571.84;2693708;26;20064;-74
2024/04/16 02:41:29;;;;;;;9.75;2.17;;;;;;;7.08;67.95;99574.47;2706556;26;20015;-73
2024/04/16 02:42:42;;;;;;;8.85;3.25;;;;;;;7.06;68.44;99577.97;2698217;26;20445;-73
2024/04/16 02:43:56;;;;;;;11.98;3.33;;;;;;;7.02;68.08;99581.44;2699390;26;19996;-74
2024/04/16 02:45:09;;;;;;;10.57;2.28;;;;;;;6.97;68.14;99573.75;2706260;26;20433;-73
2024/04/16 02:46:22;;;;;;;7.55;2.45;;;;;;;6.92;67.40;99575.53;2703535;26;19992;-74
2024/04/16 02:47:35;;;;;;;6.78;2.55;;;;;;;6.88;67.96;99577.28;2694069;26;19996;-74
2024/04/16 02:48:49;;;;;;;7.32;3.53;;;;;;;6.82;67.21;99572.19;2705406;26;20015;-74
2024/04/16 02:50:02;;;;;;;5.90;2.42;;;;;;;6.76;67.49;99580.00;2707292;26;19996;-74
2024/04/16 02:51:17;;;;;;;5.55;2.40;;;;;;;6.70;67.49;99595.63;2705367;26;20066;-74
2024/04/16 02:52:30;;;;;;;17.58;2.80;;;;;;;6.64;67.38;99595.69;2700636;26;20457;-74
2024/04/16 02:53:43;;;;;;;8.10;2.83;;;;;;;6.58;67.43;99598.31;2697953;26;20012;-74
2024/04/16 02:54:56;;;;;;;5.70;3.47;;;;;;;6.53;67.57;99591.47;2695561;26;20102;-73
2024/04/16 02:56:09;;;;;;;15.43;4.10;;;;;;;6.46;67.61;99583.75;2703231;26;20111;-74
2024/04/16 02:57:23;;;;;;;8.63;3.42;;;;;;;6.42;67.99;99592.44;2692156;26;20000;-74
2024/04/16 02:58:36;;;;;;;4.97;2.90;;;;;;;6.39;67.29;99589.88;2681630;26;20001;-74
2024/04/16 02:59:49;;;;;;;7.47;2.35;;;;;;;6.36;67.81;99603.72;2677822;26;19997;-74
2024/04/16 03:01:04;;;;;;;12.00;2.63;;;;;;;6.34;66.72;99593.34;2689124;26;20011;-74
2024/04/16 03:02:17;;;;;;;11.00;2.83;;;;;;;6.32;67.29;99594.22;2672247;26;20351;-73
2024/04/16 03:03:32;;;;;;;8.15;2.35;;;;;;;6.29;67.21;99592.53;2689972;26;20028;-74
2024/04/16 03:04:46;;;;;;;9.30;2.75;;;;;;;6.27;67.13;99596.00;2689267;26;20025;-74
2024/04/16 03:05:59;;;;;;;5.65;2.65;;;;;;;6.22;67.22;99590.00;2670673;26;20461;-74
2024/04/16 03:07:12;;;;;;;7.32;2.10;;;;;;;6.17;67.33;99591.75;2683401;26;20040;-73
2024/04/16 03:08:26;;;;;;;11.85;2.80;;;;;;;6.15;67.19;99596.13;2699633;26;20013;-74
2024/04/16 03:09:39;;;;;;;4.10;1.95;;;;;;;6.09;67.77;99586.63;2688307;26;20012;-74
2024/04/16 03:11:02;;;;;;;7.18;2.40;;;;;;;6.07;67.56;99593.59;2688636;26;20001;-74
2024/04/16 03:12:15;;;;;;;5.15;2.72;;;;;;;6.01;67.84;99594.47;2686676;26;20009;-74
2024/04/16 03:13:29;;;;;;;12.55;2.92;;;;;;;5.98;68.07;99591.91;2692031;26;20437;-74
2024/04/16 03:14:42;;;;;;;8.65;2.25;;;;;;;5.95;67.94;99591.06;2669922;27;20474;-74
2024/04/16 03:15:55;;;;;;;4.55;2.65;;;;;;;5.94;68.23;99589.34;2686899;26;20012;-74
2024/04/16 03:17:08;;;;;;;7.47;2.85;;;;;;;5.92;68.47;99596.25;2693560;26;19997;-74
2024/04/16 03:18:21;;;;;;;8.32;2.25;;;;;;;5.88;68.61;99590.22;2687928;26;20001;-74
2024/04/16 03:19:35;;;;;;;8.52;3.30;;;;;;;5.86;68.23;99600.59;2694195;26;20011;-74
2024/04/16 03:20:57;;;;;;;7.22;2.33;;;;;;;5.84;69.08;99594.56;2699733;26;20023;-74
2024/04/16 03:22:11;;;;;;;7.30;2.22;;;;;;;5.82;69.04;99604.06;2689353;26;20655;-74
2024/04/16 03:23:24;;;;;;;14.43;3.80;;;;;;;5.80;68.92;99599.75;2689168;26;20012;-74
2024/04/16 03:24:37;;;;;;;8.65;3.97;;;;;;;5.77;68.97;99608.41;2694900;26;20010;-74
2024/04/16 03:25:50;;;;;;;23.05;3.28;;;;;;;5.75;69.42;99604.09;2696703;26;20040;-74
2024/04/16 03:27:04;;;;;;;10.82;2.80;;;;;;;5.72;69.69;99612.75;2700806;26;20020;-74
2024/04/16 03:28:17;;;;;;;13.52;4.47;;;;;;;5.68;70.00;99598.97;2704755;26;20077;-74
2024/04/16 03:29:30;;;;;;;10.40;2.83;;;;;;;5.66;69.64;99602.44;2701171;26;20298;-74
2024/04/16 03:30:44;;;;;;;7.93;3.63;;;;;;;5.63;70.13;99605.06;2688094;26;19997;-74
2024/04/16 03:31:57;;;;;;;11.48;3.70;;;;;;;5.62;70.52;99608.50;2698919;26;20000;-74
2024/04/16 03:33:10;;;;;;;7.70;2.92;;;;;;;5.60;70.74;99595.56;2693057;26;20120;-73
2024/04/16 03:34:23;;;;;;;10.25;2.97;;;;;;;5.58;70.80;99586.94;2689021;26;20023;-73
2024/04/16 03:35:36;;;;;;;14.25;2.92;;;;;;;5.56;70.25;99588.69;2694951;26;19996;-73
2024/04/16 03:36:50;;;;;;;21.27;3.55;;;;;;;5.54;70.92;99587.81;2697422;26;20041;-73
2024/04/16 03:38:03;;;;;;;7.25;2.65;;;;;;;5.53;70.57;99587.84;2700795;26;19996;-73
2024/04/16 03:39:17;;;;;;;11.25;3.25;;;;;;;5.52;71.02;99592.13;2691757;26;20008;-73
2024/04/16 03:40:30;;;;;;;11.18;2.90;;;;;;;5.52;70.47;99584.38;2701192;26;20336;-73
2024/04/16 03:41:43;;;;;;;10.45;2.63;;;;;;;5.53;70.57;99580.94;2695753;26;20004;-73
2024/04/16 03:42:56;;;;;;;14.90;3.30;;;;;;;5.50;70.94;99575.78;2697444;26;19996;-73
2024/04/16 03:44:09;;;;;;;12.55;4.38;;;;;;;5.50;70.60;99578.38;2703306;26;19996;-73
2024/04/16 03:45:23;;;;;;;5.55;2.70;;;;;;;5.50;70.92;99575.78;2690303;26;20064;-74
2024/04/16 03:46:36;;;;;;;12.07;2.92;;;;;;;5.51;70.40;99580.09;2700223;26;20001;-73
2024/04/16 03:47:49;;;;;;;8.18;2.20;;;;;;;5.51;71.11;99579.22;2697203;26;20011;-73
2024/04/16 03:49:02;;;;;;;7.78;2.70;;;;;;;5.49;71.02;99573.19;2692368;26;20032;-73
2024/04/16 03:50:16;;;;;;;13.73;2.80;;;;;;;5.49;71.07;99575.78;2703873;26;20011;-74
2024/04/16 03:51:29;;;;;;;9.70;3.58;;;;;;;5.46;70.98;99574.91;2706835;26;20007;-73
2024/04/16 03:52:42;;;;;;;9.50;3.10;;;;;;;5.47;70.78;99573.19;2698238;26;20016;-73
2024/04/16 03:53:55;;;;;;;8.20;3.30;;;;;;;5.45;70.93;99569.78;2698305;26;19996;-73
2024/04/16 03:55:09;;;;;;;6.13;2.42;;;;;;;5.44;70.95;99571.47;2692735;26;20001;-73
2024/04/16 03:56:22;;;;;;;14.32;4.18;;;;;;;5.43;70.60;99576.69;2702008;26;19996;-73
2024/04/16 03:57:35;;;;;;;9.43;2.55;;;;;;;5.43;70.50;99568.91;2688869;26;20001;-73
2024/04/16 03:59:15;;;;;;;6.95;2.88;;;;;;;5.43;70.91;99572.34;2687476;26;20484;-73
2024/04/16 04:02:00;;;;;;;12.00;2.95;;;;;;;5.44;70.90;99575.78;2694670;26;20011;-73
2024/04/16 04:03:17;;;;;;;7.47;3.10;;;;;;;5.45;71.01;99573.22;2703522;26;20007;-73
2024/04/16 04:04:30;;;;;;;10.30;3.00;;;;;;;5.47;70.31;99583.53;2678544;26;19998;-72
2024/04/16 04:05:44;;;;;;;10.85;2.53;;;;;;;5.48;70.94;99595.63;2698812;26;20375;-72
2024/04/16 04:06:57;;;;;;;9.82;4.05;;;;;;;5.49;70.40;99584.41;2698426;26;20000;-72
2024/04/16 04:08:10;;;;;;;6.10;2.30;;;;;;;5.53;70.47;99585.25;2679805;26;20001;-73
2024/04/16 04:09:23;;;;;;;13.00;3.33;;;;;;;5.56;70.20;99591.28;2676338;26;19993;-72
2024/04/16 04:10:37;;;;;;;10.63;2.78;;;;;;;5.56;70.19;99580.91;2688435;26;20011;-73
2024/04/16 04:11:50;;;;;;;14.50;5.53;;;;;;;5.59;70.65;99588.66;2697768;26;19996;-72
2024/04/16 04:13:04;;;;;;;13.40;2.85;;;;;;;5.61;70.34;99586.94;2694721;26;20000;-72
2024/04/16 04:14:17;;;;;;;10.13;2.50;;;;;;;5.64;70.61;99583.47;2702053;26;19996;-72
2024/04/16 04:15:31;;;;;;;23.20;4.85;;;;;;;5.67;70.38;99583.44;2692024;26;20140;-72
2024/04/16 04:16:44;;;;;;;8.40;3.42;;;;;;;5.70;70.30;99588.59;2698088;26;20000;-73
2024/04/16 04:17:57;;;;;;;14.35;3.45;;;;;;;5.72;70.06;99584.28;2698106;26;20672;-73
2024/04/16 04:19:10;;;;;;;9.43;3.58;;;;;;;5.74;69.83;99574.78;2693321;26;20355;-72
2024/04/16 04:20:24;;;;;;;6.88;3.13;;;;;;;5.77;70.61;99584.25;2702898;26;20012;-73
2024/04/16 04:21:37;;;;;;;13.50;4.70;;;;;;;5.80;70.47;99585.06;2693357;26;20097;-73
2024/04/16 04:22:50;;;;;;;11.52;3.20;;;;;;;5.83;69.83;99589.38;2693501;26;20352;-73
2024/04/16 04:24:04;;;;;;;7.55;2.80;;;;;;;5.85;69.96;99588.50;2704991;26;20160;-72
2024/04/16 04:25:17;;;;;;;8.27;2.67;;;;;;;5.87;69.71;99589.34;2705878;26;20000;-73
2024/04/16 04:26:30;;;;;;;6.60;2.50;;;;;;;5.88;70.00;99593.66;2692559;26;20021;-72
2024/04/16 04:27:43;;;;;;;8.23;2.50;;;;;;;5.89;70.30;99590.22;2699828;26;20001;-72
2024/04/16 04:28:57;;;;;;;21.55;5.50;;;;;;;5.90;69.68;99593.66;2696761;26;20004;-72
2024/04/16 04:30:10;;;;;;;13.57;3.17;;;;;;;5.90;69.99;99596.25;2692667;26;20471;-72
2024/04/16 04:31:24;;;;;;;9.68;2.75;;;;;;;5.92;69.34;99599.69;2702143;26;20000;-72
2024/04/16 04:32:37;;;;;;;7.90;3.17;;;;;;;5.95;69.63;99599.69;2692912;26;20069;-72
2024/04/16 04:33:50;;;;;;;9.90;3.15;;;;;;;5.96;70.06;99601.41;2698581;26;20009;-72
2024/04/16 04:35:04;;;;;;;9.68;2.72;;;;;;;5.98;69.32;99602.25;2700217;26;19996;-74
2024/04/16 04:36:17;;;;;;;7.75;2.75;;;;;;;6.02;69.34;99608.28;2691671;26;20356;-74
2024/04/16 04:37:30;;;;;;;12.57;2.53;;;;;;;6.03;69.23;99605.69;2706474;26;20321;-74
2024/04/16 04:38:43;;;;;;;13.07;2.85;;;;;;;6.03;69.55;99603.09;2699478;26;20015;-72
2024/04/16 04:39:57;;;;;;;13.38;3.08;;;;;;;6.05;69.38;99601.34;2698171;26;20004;-72
2024/04/16 04:41:13;;;;;;;8.93;3.50;;;;;;;6.05;69.61;99596.19;2705514;26;20007;-72
2024/04/16 04:42:26;;;;;;;7.32;2.75;;;;;;;6.08;69.74;99603.06;2691013;26;19997;-72
2024/04/16 04:43:39;;;;;;;9.27;3.30;;;;;;;6.10;69.66;99603.91;2705387;26;19996;-72
2024/04/16 04:44:53;;;;;;;12.27;3.47;;;;;;;6.10;69.90;99602.19;2697315;26;20357;-72
2024/04/16 04:46:06;;;;;;;11.63;3.65;;;;;;;6.13;69.44;99605.63;2700729;26;20333;-72
2024/04/16 04:47:20;;;;;;;17.15;4.03;;;;;;;6.14;69.47;99594.38;2691688;26;20074;-72
2024/04/16 04:48:33;;;;;;;24.70;5.13;;;;;;;6.13;69.06;99603.03;2700358;26;20433;-72
2024/04/16 04:49:47;;;;;;;17.00;3.80;;;;;;;6.10;68.11;99603.91;2676367;26;20004;-72
2024/04/16 04:51:00;;;;;;;15.55;5.10;;;;;;;6.08;68.09;99596.16;2676689;26;20013;-72
2024/04/16 04:52:13;;;;;;;11.45;2.83;;;;;;;6.05;68.20;99597.91;2687628;26;20417;-72
2024/04/16 04:53:27;;;;;;;13.38;5.45;;;;;;;6.03;68.31;99595.31;2704290;26;20141;-72
2024/04/16 04:54:40;;;;;;;12.82;2.90;;;;;;;6.00;68.23;99600.53;2700448;26;20338;-72
2024/04/16 04:55:53;;;;;;;10.75;2.55;;;;;;;5.98;68.58;99591.91;2697199;26;20073;-73
2024/04/16 04:57:06;;;;;;;10.95;3.53;;;;;;;5.95;68.42;99604.88;2705519;26;20000;-73
2024/04/16 04:58:20;;;;;;;14.00;5.03;;;;;;;5.94;68.54;99602.28;2690811;26;20085;-72
2024/04/16 04:59:33;;;;;;;9.13;4.57;;;;;;;5.92;69.04;99609.19;2691259;26;20024;-72
2024/04/16 05:00:47;;;;;;;14.10;5.15;;;;;;;5.90;68.80;99606.59;2698170;26;20001;-73
2024/04/16 05:02:01;;;;;;;12.32;3.90;;;;;;;5.93;69.14;99595.38;2698708;26;20338;-73
2024/04/16 05:03:14;;;;;;;19.15;3.90;;;;;;;5.95;69.03;99598.84;2705243;26;19996;-72
2024/04/16 05:04:28;;;;;;;21.10;3.97;;;;;;;5.98;68.86;99598.81;2706844;26;20000;-73
2024/04/16 05:05:45;;;;;;;9.15;3.70;;;;;;;6.00;69.32;99603.13;2697802;26;20068;-73
2024/04/16 05:06:58;;;;;;;7.00;2.95;;;;;;;6.02;69.06;99614.34;2709968;26;20479;-72
2024/04/16 05:08:12;;;;;;;12.55;5.72;;;;;;;6.06;68.58;99605.66;2708937;26;20040;-72
2024/04/16 05:09:25;;;;;;;7.80;2.60;;;;;;;6.13;68.57;99614.25;2708584;26;20004;-72
2024/04/16 05:10:39;;;;;;;12.27;3.47;;;;;;;6.17;69.01;99615.97;2692363;26;20086;-73
2024/04/16 05:11:52;;;;;;;13.20;3.22;;;;;;;6.22;68.84;99605.53;2689340;26;20000;-73
2024/04/16 05:13:05;;;;;;;10.85;3.67;;;;;;;6.28;68.63;99619.31;2691665;26;20390;-73
2024/04/16 05:14:19;;;;;;;8.93;4.38;;;;;;;6.33;68.68;99607.19;2703614;26;20020;-73
2024/04/16 05:15:32;;;;;;;14.27;4.55;;;;;;;6.38;68.24;99614.94;2694858;26;20001;-72
2024/04/16 05:16:46;;;;;;;9.38;2.55;;;;;;;6.41;67.29;99617.50;2701493;26;20074;-73
2024/04/16 05:18:00;;;;;;;9.70;3.80;;;;;;;6.45;68.09;99620.91;2699770;26;20053;-73
2024/04/16 05:19:13;;;;;;;6.63;2.67;;;;;;;6.46;68.08;99620.06;2695640;26;20004;-72
2024/04/16 05:20:26;;;;;;;6.28;3.08;;;;;;;6.48;67.64;99611.38;2689251;26;20000;-73
2024/04/16 05:21:39;;;;;;;12.27;3.00;;;;;;;6.49;67.29;99614.84;2692667;26;20005;-73
2024/04/16 05:22:53;;;;;;;9.70;2.90;;;;;;;6.52;67.74;99604.44;2700375;26;20107;-73
2024/04/16 05:24:06;;;;;;;14.05;4.60;;;;;;;6.54;67.88;99624.28;2709347;26;20310;-73
2024/04/16 05:25:19;;;;;;;10.52;3.28;;;;;;;6.59;68.00;99616.47;2709050;26;20023;-73
2024/04/16 05:26:33;;;;;;;12.75;3.72;;;;;;;6.64;67.64;99617.28;2694561;26;20012;-73
2024/04/16 05:27:46;;;;;;;20.67;5.10;;;;;;;6.72;67.78;99622.41;2702512;26;20133;-73
2024/04/16 05:28:59;;;;;;;11.75;4.53;;;;;;;6.76;67.30;99616.31;2690149;26;20491;-73
2024/04/16 05:30:12;;;;;;;10.93;3.30;;;;;;;6.79;67.76;99618.88;2691650;26;20421;-73
2024/04/16 05:31:26;;;;;;;10.65;5.03;;;;;;;6.84;66.96;99608.44;2707989;26;20004;-72
2024/04/16 05:32:39;;;;;;;7.05;2.80;;;;;;;6.88;66.08;99617.94;2709229;26;20008;-73
2024/04/16 05:33:52;;;;;;;18.55;4.82;;;;;;;6.89;65.86;99625.72;2708259;26;20004;-72
2024/04/16 05:35:06;;;;;;;22.08;3.78;;;;;;;6.91;66.34;99626.53;2708979;26;20010;-73
2024/04/16 05:36:19;;;;;;;12.77;3.30;;;;;;;6.95;65.88;99624.78;2708862;26;20040;-72
2024/04/16 05:37:33;;;;;;;12.43;4.28;;;;;;;6.96;66.28;99618.69;2708534;26;20000;-73
2024/04/16 05:38:46;;;;;;;13.30;5.07;;;;;;;6.98;66.38;99623.00;2708492;26;20326;-73
2024/04/16 05:39:59;;;;;;;5.82;2.60;;;;;;;6.97;65.59;99623.88;2708558;26;20077;-73
2024/04/16 05:41:13;;;;;;;11.05;3.85;;;;;;;6.98;65.59;99617.81;2709922;26;20004;-73
2024/04/16 05:42:26;;;;;;;11.82;3.63;;;;;;;6.96;65.72;99640.31;2693599;26;20011;-72
2024/04/16 05:43:40;;;;;;;16.45;4.45;;;;;;;6.96;65.03;99618.69;2696648;26;20016;-72
2024/04/16 05:44:54;;;;;;;5.78;2.65;;;;;;;6.94;65.26;99610.94;2709291;26;20584;-73
2024/04/16 05:46:07;;;;;;;9.30;4.47;;;;;;;6.92;64.65;99619.63;2709713;26;19996;-73
2024/04/16 05:47:20;;;;;;;8.80;3.85;;;;;;;6.91;65.15;99617.88;2708603;26;20004;-73
2024/04/16 05:48:33;;;;;;;9.50;2.70;;;;;;;6.92;65.11;99615.28;2708171;26;20004;-73
2024/04/16 05:49:46;;;;;;;15.40;4.15;;;;;;;6.95;65.11;99623.03;2709536;26;20000;-73
2024/04/16 05:51:00;;;;;;;11.90;3.28;;;;;;;6.97;65.25;99621.28;2709521;26;20081;-73